Time;durP1;ratioP1;P1;durP2;ratioP2;P2;SDS_P1;SDS_P2;PMS_P1;PMS_P2;Temp;Humidity;BMP_temperature;BMP_pressure;BME280_temperature;BME280_humidity;BME280_pressure;Samples;Min_cycle;Max_cycle;Signal;HPM_P1;HPM_P2
2022/07/05 00:00:48;;;;;;;6.88;6.28;;;21.80;75.60;;;;;;6255023;22;20208;-89
2022/07/05 00:03:14;;;;;;;7.38;6.70;;;21.80;75.50;;;;;;6230602;22;20238;-89
2022/07/05 00:05:40;;;;;;;6.63;6.07;;;21.90;75.60;;;;;;6255335;22;20164;-89
2022/07/05 00:08:06;;;;;;;6.90;6.32;;;21.80;75.40;;;;;;6254954;22;20155;-90
2022/07/05 00:10:34;;;;;;;6.57;5.97;;;21.90;75.50;;;;;;6254925;22;20559;-89
2022/07/05 00:13:00;;;;;;;6.85;6.25;;;21.90;75.60;;;;;;6229688;22;20180;-89
2022/07/05 00:15:29;;;;;;;6.55;6.05;;;21.80;75.60;;;;;;6230365;22;20144;-90
2022/07/05 00:17:55;;;;;;;7.18;6.57;;;21.80;75.60;;;;;;6230590;22;20148;-89
2022/07/05 00:20:21;;;;;;;6.85;6.25;;;21.80;75.50;;;;;;6229559;22;20145;-89
2022/07/05 00:22:48;;;;;;;6.60;6.00;;;21.90;75.70;;;;;;6229559;22;20162;-90
2022/07/05 00:25:15;;;;;;;6.75;6.15;;;21.90;76.30;;;;;;6229480;22;20144;-88
2022/07/05 00:27:40;;;;;;;6.95;6.35;;;21.80;75.40;;;;;;6255380;22;20163;-90
2022/07/05 00:30:07;;;;;;;6.82;6.22;;;21.80;75.50;;;;;;6230299;22;20155;-89
2022/07/05 00:32:33;;;;;;;6.90;6.30;;;21.80;75.50;;;;;;6254939;22;20167;-89
2022/07/05 00:34:58;;;;;;;6.72;6.13;;;21.80;75.40;;;;;;6229432;22;20168;-89
2022/07/05 00:37:24;;;;;;;6.65;6.15;;;21.80;75.40;;;;;;6231546;22;20144;-89
2022/07/05 00:39:51;;;;;;;7.30;6.70;;;21.80;75.40;;;;;;6256839;22;20154;-90
2022/07/05 00:42:17;;;;;;;6.90;6.30;;;21.80;75.40;;;;;;6256631;22;20535;-89
2022/07/05 00:44:43;;;;;;;7.10;6.50;;;21.90;75.40;;;;;;6231945;22;20193;-88
2022/07/05 00:47:11;;;;;;;6.85;6.25;;;21.80;75.40;;;;;;6282068;22;20215;-89
2022/07/05 00:49:36;;;;;;;6.60;6.00;;;21.80;76.20;;;;;;6251419;22;20492;-89
2022/07/05 00:52:02;;;;;;;7.43;6.82;;;21.80;75.30;;;;;;6226712;22;20180;-89
2022/07/05 00:54:33;;;;;;;7.47;6.88;;;21.90;75.40;;;;;;6225893;22;20141;-89
2022/07/05 00:56:59;;;;;;;6.65;6.05;;;21.80;75.40;;;;;;6226098;22;20195;-88
2022/07/05 00:59:30;;;;;;;7.13;6.53;;;21.90;75.30;;;;;;6225861;22;20153;-89
2022/07/05 01:01:57;;;;;;;6.90;6.30;;;21.80;75.30;;;;;;6251479;22;20145;-89
2022/07/05 01:04:23;;;;;;;7.15;6.55;;;21.90;75.40;;;;;;6226628;22;20155;-89
2022/07/05 01:06:51;;;;;;;7.25;6.65;;;21.90;75.40;;;;;;6225916;22;20149;-89
2022/07/05 01:09:21;;;;;;;6.43;5.88;;;21.80;75.30;;;;;;6225928;22;20179;-89
2022/07/05 01:11:47;;;;;;;7.20;6.60;;;21.80;75.30;;;;;;6251490;22;20595;-89
2022/07/05 01:14:15;;;;;;;6.70;6.13;;;21.90;75.30;;;;;;6226298;22;20492;-90
2022/07/05 01:16:44;;;;;;;6.78;6.18;;;21.80;75.30;;;;;;6226722;22;20148;-89
2022/07/05 01:19:11;;;;;;;7.07;6.47;;;21.90;75.30;;;;;;6251095;22;20125;-89
2022/07/05 01:21:40;;;;;;;7.00;6.40;;;21.90;75.30;;;;;;6251806;22;20129;-90
2022/07/05 01:24:09;;;;;;;7.03;6.43;;;21.80;75.20;;;;;;6251392;22;20133;-89
2022/07/05 01:26:35;;;;;;;7.13;6.53;;;21.80;75.20;;;;;;6225772;22;20145;-90
2022/07/05 01:29:04;;;;;;;6.45;5.95;;;21.90;75.30;;;;;;6226780;22;20152;-90
2022/07/05 01:31:30;;;;;;;6.88;6.28;;;21.80;75.30;;;;;;6200395;22;20153;-88
2022/07/05 01:33:57;;;;;;;7.25;6.65;;;21.80;75.20;;;;;;6225568;22;20179;-89
2022/07/05 01:36:24;;;;;;;6.90;6.30;;;21.80;75.20;;;;;;6225736;22;20144;-89
2022/07/05 01:38:50;;;;;;;7.18;6.57;;;21.80;75.30;;;;;;6226452;22;20151;-89
2022/07/05 01:41:17;;;;;;;6.43;5.90;;;21.90;75.20;;;;;;6226102;22;20534;-89
2022/07/05 01:43:43;;;;;;;7.65;6.95;;;21.90;75.10;;;;;;6251647;22;20133;-90
2022/07/05 01:46:09;;;;;;;7.07;6.47;;;21.90;75.20;;;;;;6226409;22;20151;-89
2022/07/05 01:48:37;;;;;;;6.60;6.10;;;21.90;74.90;;;;;;6276654;22;20132;-88
2022/07/05 01:51:21;;;;;;;6.88;6.28;;;21.90;75.10;;;;;;6250873;22;20660;-89
2022/07/05 01:53:47;;;;;;;6.88;6.28;;;21.90;75.00;;;;;;6229638;22;20180;-89
2022/07/05 01:56:12;;;;;;;6.20;5.70;;;21.90;75.00;;;;;;6251274;22;20204;-89
2022/07/05 01:58:38;;;;;;;6.90;6.30;;;21.90;75.00;;;;;;6250982;22;20144;-89
2022/07/05 02:01:04;;;;;;;7.00;6.40;;;21.90;75.00;;;;;;6225336;22;20151;-89
2022/07/05 02:03:30;;;;;;;7.20;6.55;;;21.90;75.00;;;;;;6250596;22;20144;-89
2022/07/05 02:05:56;;;;;;;6.95;6.35;;;21.90;75.00;;;;;;6251161;22;20136;-91
2022/07/05 02:08:28;;;;;;;6.85;6.25;;;21.80;74.90;;;;;;6250623;22;20133;-88
2022/07/05 02:10:53;;;;;;;6.78;6.18;;;21.90;74.90;;;;;;6252060;22;20175;-90
2022/07/05 02:13:20;;;;;;;7.40;6.80;;;21.80;74.80;;;;;;6225488;22;20550;-89
2022/07/05 02:15:47;;;;;;;6.85;6.25;;;21.90;75.00;;;;;;6225903;22;20576;-89
2022/07/05 02:18:13;;;;;;;6.50;6.00;;;21.90;74.90;;;;;;6225093;22;20586;-90
2022/07/05 02:20:40;;;;;;;7.13;6.53;;;21.80;74.90;;;;;;6225451;22;20145;-89
2022/07/05 02:23:06;;;;;;;6.55;6.05;;;21.80;74.90;;;;;;6250820;22;20140;-90
2022/07/05 02:25:31;;;;;;;6.85;6.25;;;21.80;74.90;;;;;;6226177;22;20152;-89
2022/07/05 02:27:58;;;;;;;7.15;6.55;;;21.90;74.90;;;;;;6250995;22;20436;-89
2022/07/05 02:30:26;;;;;;;7.22;6.63;;;21.90;74.90;;;;;;6250840;22;20145;-89
2022/07/05 02:32:52;;;;;;;6.68;6.07;;;21.80;74.90;;;;;;6225146;22;20176;-90
2022/07/05 02:35:18;;;;;;;6.75;6.15;;;21.90;74.90;;;;;;6250208;22;20145;-88
2022/07/05 02:37:44;;;;;;;6.68;6.10;;;21.80;74.80;;;;;;6224940;22;20179;-89
2022/07/05 02:40:12;;;;;;;6.25;5.75;;;21.90;74.90;;;;;;6250183;22;20203;-89
2022/07/05 02:42:38;;;;;;;6.15;5.65;;;21.90;74.80;;;;;;6224954;22;20160;-89
2022/07/05 02:45:05;;;;;;;6.80;6.20;;;21.90;74.80;;;;;;6226009;22;20459;-89
2022/07/05 02:47:32;;;;;;;6.68;6.18;;;21.90;74.70;;;;;;6225230;22;20175;-89
2022/07/05 02:49:58;;;;;;;6.80;6.20;;;21.90;74.90;;;;;;6225168;22;20636;-89
2022/07/05 02:52:25;;;;;;;7.18;6.57;;;21.80;74.70;;;;;;6225362;22;20477;-89
2022/07/05 02:54:52;;;;;;;6.82;6.22;;;21.90;74.70;;;;;;6250400;22;20129;-89
2022/07/05 02:57:18;;;;;;;6.35;5.85;;;21.90;74.70;;;;;;6225668;22;20151;-91
2022/07/05 02:59:44;;;;;;;6.40;5.90;;;21.90;74.80;;;;;;6251111;22;20129;-89
2022/07/05 03:02:10;;;;;;;6.50;6.00;;;21.90;74.70;;;;;;6226329;22;20148;-88
2022/07/05 03:04:36;;;;;;;6.80;6.20;;;21.80;74.80;;;;;;6251259;22;20136;-89
2022/07/05 03:07:03;;;;;;;6.40;5.90;;;21.80;74.70;;;;;;6251651;22;20129;-89
2022/07/05 03:09:38;;;;;;;6.93;6.22;;;21.90;74.70;;;;;;6227438;22;20224;-89
2022/07/05 03:12:05;;;;;;;6.88;6.28;;;21.80;74.60;;;;;;6278060;22;20594;-90
2022/07/05 03:14:34;;;;;;;6.53;5.93;;;21.90;74.70;;;;;;6227018;22;20132;-89
2022/07/05 03:17:00;;;;;;;6.50;5.90;;;21.90;74.80;;;;;;6226664;22;20152;-88
2022/07/05 03:19:26;;;;;;;7.03;6.43;;;21.90;74.70;;;;;;6225990;22;20137;-89
2022/07/05 03:21:53;;;;;;;6.20;5.70;;;21.80;74.70;;;;;;6226292;22;20168;-89
2022/07/05 03:24:19;;;;;;;6.25;5.75;;;21.90;74.70;;;;;;6225418;22;20223;-89
2022/07/05 03:26:45;;;;;;;6.80;6.18;;;21.90;74.70;;;;;;6250380;22;20136;-89
2022/07/05 03:29:15;;;;;;;6.13;5.63;;;21.90;74.70;;;;;;6225418;22;20148;-89
2022/07/05 03:31:42;;;;;;;6.25;5.75;;;21.80;74.50;;;;;;6225079;22;20141;-89
2022/07/05 03:34:07;;;;;;;6.50;5.95;;;21.90;74.80;;;;;;6225279;22;20184;-90
2022/07/05 03:36:35;;;;;;;6.40;5.90;;;21.80;74.70;;;;;;6224827;22;20141;-87
2022/07/05 03:39:04;;;;;;;6.40;5.90;;;21.80;74.30;;;;;;6226047;22;20214;-88
2022/07/05 03:41:31;;;;;;;6.57;5.97;;;21.90;74.60;;;;;;6251727;22;20159;-87
2022/07/05 03:44:00;;;;;;;6.75;6.15;;;21.90;74.40;;;;;;6225339;22;20170;-88
2022/07/05 03:46:26;;;;;;;6.65;6.05;;;21.90;74.50;;;;;;6225608;22;20550;-87
2022/07/05 03:48:53;;;;;;;6.00;5.50;;;21.90;74.50;;;;;;6225611;22;20152;-89
2022/07/05 03:51:18;;;;;;;6.57;6.07;;;21.80;74.30;;;;;;6250319;22;20188;-87
2022/07/05 03:53:45;;;;;;;6.78;6.18;;;21.80;74.50;;;;;;6225516;22;20183;-89
2022/07/05 03:56:19;;;;;;;6.70;6.10;;;21.80;74.60;;;;;;6250939;22;20125;-90
2022/07/05 03:58:47;;;;;;;7.07;6.38;;;21.80;74.60;;;;;;6230036;22;20145;-89
2022/07/05 04:01:12;;;;;;;6.20;5.70;;;21.80;75.40;;;;;;6251798;22;20475;-89
2022/07/05 04:03:43;;;;;;;6.28;5.78;;;21.80;74.70;;;;;;6227373;22;20156;-89
2022/07/05 04:06:10;;;;;;;6.75;6.15;;;21.90;74.50;;;;;;6253049;22;20172;-89
2022/07/05 04:08:38;;;;;;;6.55;6.05;;;21.80;74.50;;;;;;6251973;22;20175;-89
2022/07/05 04:11:07;;;;;;;6.40;5.90;;;21.80;74.30;;;;;;6228878;22;20231;-89
2022/07/05 04:13:33;;;;;;;5.95;5.45;;;21.80;74.40;;;;;;6194139;23;20201;-89
2022/07/05 04:16:00;;;;;;;6.65;6.05;;;21.80;74.40;;;;;;6193348;23;20260;-89
2022/07/05 04:18:28;;;;;;;6.10;5.60;;;21.90;74.30;;;;;;6192812;23;20244;-89
2022/07/05 04:20:55;;;;;;;6.20;5.70;;;21.90;74.00;;;;;;6193548;23;20221;-88
2022/07/05 04:23:21;;;;;;;6.18;5.68;;;21.90;73.90;;;;;;6192859;23;20154;-90
2022/07/05 04:25:47;;;;;;;5.80;5.30;;;21.90;73.90;;;;;;6192208;23;20332;-89
2022/07/05 04:28:13;;;;;;;6.15;5.65;;;21.90;73.70;;;;;;6193613;23;20245;-90
2022/07/05 04:30:42;;;;;;;5.90;5.40;;;22.00;73.60;;;;;;6193846;23;20146;-89
2022/07/05 04:33:15;;;;;;;6.55;6.00;;;22.00;73.50;;;;;;6194259;23;20712;-90
2022/07/05 04:35:42;;;;;;;5.70;5.20;;;22.00;73.40;;;;;;6193670;23;20181;-90
2022/07/05 04:38:08;;;;;;;6.00;5.50;;;22.00;73.10;;;;;;6193475;23;20157;-90
2022/07/05 04:40:41;;;;;;;6.50;5.90;;;22.10;73.10;;;;;;6194789;23;20146;-89
2022/07/05 04:43:07;;;;;;;6.00;5.50;;;22.00;72.90;;;;;;6189888;23;20162;-90
2022/07/05 04:45:44;;;;;;;5.90;5.40;;;22.10;73.10;;;;;;6138387;23;20159;-89
2022/07/05 04:48:15;;;;;;;5.82;5.32;;;22.00;72.90;;;;;;6190177;23;20155;-89
2022/07/05 04:50:46;;;;;;;5.82;5.32;;;22.10;72.90;;;;;;6169412;23;20273;-88
2022/07/05 04:53:14;;;;;;;5.95;5.45;;;22.10;72.50;;;;;;6101416;23;20632;-89
2022/07/05 04:55:51;;;;;;;5.97;5.47;;;22.10;72.30;;;;;;6100558;23;20145;-90
2022/07/05 04:58:17;;;;;;;6.00;5.40;;;22.10;72.20;;;;;;6127157;23;20657;-88
2022/07/05 05:00:44;;;;;;;5.50;5.10;;;22.10;72.00;;;;;;6078374;23;20228;-89
2022/07/05 05:03:15;;;;;;;5.78;5.28;;;22.10;72.00;;;;;;6075967;23;20226;-90
2022/07/05 05:05:40;;;;;;;5.32;4.82;;;22.00;72.30;;;;;;6098695;23;20188;-89
2022/07/05 05:08:07;;;;;;;5.07;4.68;;;22.10;71.80;;;;;;6074578;23;20174;-88
2022/07/05 05:10:36;;;;;;;5.20;4.72;;;22.10;71.70;;;;;;6074063;23;20152;-90
2022/07/05 05:13:11;;;;;;;5.10;4.70;;;22.10;71.00;;;;;;6068270;23;20184;-89
2022/07/05 05:15:39;;;;;;;5.13;4.72;;;22.20;70.70;;;;;;6040882;23;20160;-90
2022/07/05 05:18:06;;;;;;;5.28;4.78;;;22.20;70.20;;;;;;6040177;23;20189;-90
2022/07/05 05:20:32;;;;;;;4.85;4.45;;;22.30;70.50;;;;;;6039983;23;20166;-90
2022/07/05 05:23:00;;;;;;;5.13;4.70;;;22.20;70.20;;;;;;6039817;23;20166;-89
2022/07/05 05:25:35;;;;;;;5.70;5.20;;;22.30;70.20;;;;;;6098119;23;20156;-89
2022/07/05 05:28:01;;;;;;;4.45;4.05;;;22.20;70.20;;;;;;6097465;23;20166;-90
2022/07/05 05:30:27;;;;;;;4.93;4.53;;;22.20;69.80;;;;;;6126042;23;20587;-89
2022/07/05 05:32:53;;;;;;;5.13;4.65;;;22.20;69.80;;;;;;6126944;23;20508;-90
2022/07/05 05:35:23;;;;;;;5.32;4.93;;;22.30;69.40;;;;;;6160956;23;20154;-89
2022/07/05 05:37:53;;;;;;;4.70;4.30;;;22.30;69.30;;;;;;6165522;23;20156;-90
2022/07/05 05:40:26;;;;;;;4.85;4.45;;;22.30;69.40;;;;;;6078703;23;20162;-89
2022/07/05 05:42:52;;;;;;;4.80;4.38;;;22.20;69.60;;;;;;6128630;23;20156;-90
2022/07/05 05:45:22;;;;;;;4.70;4.30;;;22.30;69.20;;;;;;6127172;23;20167;-90
2022/07/05 05:47:53;;;;;;;4.68;4.28;;;22.30;68.80;;;;;;6127299;23;20160;-90
2022/07/05 05:50:24;;;;;;;4.50;4.13;;;22.30;68.70;;;;;;6103991;23;20203;-90
2022/07/05 05:52:50;;;;;;;4.50;4.10;;;22.30;68.70;;;;;;6156219;23;20179;-90
2022/07/05 05:55:17;;;;;;;4.30;4.00;;;22.30;68.40;;;;;;6156279;23;20158;-89
2022/07/05 05:57:46;;;;;;;5.10;4.70;;;22.40;67.70;;;;;;6131773;23;20195;-88
2022/07/05 06:00:17;;;;;;;4.35;3.95;;;22.40;68.10;;;;;;6131858;23;20147;-89
2022/07/05 06:02:43;;;;;;;4.22;3.92;;;22.40;67.80;;;;;;6156041;23;20655;-89
2022/07/05 06:05:10;;;;;;;4.10;3.80;;;22.40;67.40;;;;;;6155821;23;20194;-89
2022/07/05 06:07:45;;;;;;;3.80;3.50;;;22.50;67.10;;;;;;6155454;23;20577;-89
2022/07/05 06:10:15;;;;;;;3.72;3.42;;;22.50;67.10;;;;;;6155286;23;20162;-89
2022/07/05 06:12:41;;;;;;;4.00;3.70;;;22.50;66.60;;;;;;6131208;23;20183;-90
2022/07/05 06:15:08;;;;;;;4.50;4.10;;;22.50;66.50;;;;;;6130703;23;20602;-88
2022/07/05 06:17:37;;;;;;;4.20;3.90;;;22.50;66.90;;;;;;6143284;23;20155;-89
2022/07/05 06:20:07;;;;;;;4.25;3.90;;;22.50;66.50;;;;;;6185574;23;20212;-90
2022/07/05 06:22:33;;;;;;;4.18;3.83;;;22.40;66.90;;;;;;6160709;23;20146;-89
2022/07/05 06:25:00;;;;;;;3.95;3.65;;;22.50;66.30;;;;;;6136325;23;20566;-88
2022/07/05 06:27:26;;;;;;;3.97;3.60;;;22.50;66.10;;;;;;6136393;23;20157;-90
2022/07/05 06:29:52;;;;;;;3.60;3.30;;;22.40;65.80;;;;;;6135428;23;20159;-87
2022/07/05 06:32:17;;;;;;;3.70;3.40;;;22.50;66.90;;;;;;6138088;23;20181;-89
2022/07/05 06:34:45;;;;;;;3.90;3.60;;;22.50;65.80;;;;;;6137458;23;20575;-89
2022/07/05 06:37:11;;;;;;;3.75;3.45;;;22.40;65.60;;;;;;6114188;23;20147;-89
2022/07/05 06:39:38;;;;;;;3.85;3.55;;;22.50;65.90;;;;;;6143535;23;20138;-88
2022/07/05 06:42:05;;;;;;;3.75;3.45;;;22.40;65.70;;;;;;6194864;23;20150;-87
2022/07/05 06:44:52;;;;;;;4.28;3.97;;;22.50;65.40;;;;;;6251391;22;20180;-90
2022/07/05 06:47:34;;;;;;;3.70;3.40;;;22.50;65.50;;;;;;6223557;23;20149;-91
2022/07/05 06:50:02;;;;;;;3.70;3.40;;;22.40;64.90;;;;;;6201328;23;20200;-89
2022/07/05 06:52:37;;;;;;;4.93;3.28;;;22.40;65.30;;;;;;6135589;23;20238;-89
2022/07/05 06:55:30;;;;;;;3.78;3.47;;;22.50;64.90;;;;;;6075701;23;20149;-89
2022/07/05 07:02:11;;;;;;;3.47;3.17;;;22.50;64.30;;;;;;5854781;24;20620;-89
2022/07/05 07:05:30;;;;;;;3.70;3.40;;;22.50;63.50;;;;;;5751709;24;20172;-90
2022/07/05 07:10:40;;;;;;;3.80;3.50;;;22.50;64.70;;;;;;5742214;25;20166;-91
2022/07/05 07:13:26;;;;;;;3.30;3.05;;;22.50;63.80;;;;;;5759612;24;20189;-90
2022/07/05 07:15:55;;;;;;;3.47;3.17;;;22.50;63.50;;;;;;5737385;25;20626;-88
2022/07/05 07:18:26;;;;;;;3.58;3.28;;;22.50;63.40;;;;;;5736914;25;20248;-89
2022/07/05 07:20:52;;;;;;;3.70;3.40;;;22.50;62.90;;;;;;5709780;25;20221;-90
2022/07/05 07:23:19;;;;;;;3.72;3.42;;;22.50;63.30;;;;;;5736138;25;20261;-89
2022/07/05 07:25:50;;;;;;;3.50;3.20;;;22.60;63.30;;;;;;5787657;24;20168;-89
2022/07/05 07:28:18;;;;;;;3.13;2.92;;;22.60;63.10;;;;;;5846593;24;20250;-89
2022/07/05 07:30:48;;;;;;;3.40;3.10;;;22.60;62.30;;;;;;5912915;23;20159;-90
2022/07/05 07:33:18;;;;;;;3.53;3.22;;;22.60;62.20;;;;;;6038994;23;20210;-89
2022/07/05 07:35:46;;;;;;;3.65;3.35;;;22.60;62.30;;;;;;6038728;23;20649;-89
2022/07/05 07:38:15;;;;;;;3.08;2.80;;;22.60;62.20;;;;;;6039192;23;20461;-90
2022/07/05 07:40:45;;;;;;;3.35;3.05;;;22.60;61.60;;;;;;6038692;23;20154;-90
2022/07/05 07:43:10;;;;;;;3.10;2.90;;;22.70;61.80;;;;;;6072352;23;20583;-89
2022/07/05 07:45:40;;;;;;;3.47;3.17;;;22.70;61.70;;;;;;6072604;23;20194;-90
2022/07/05 07:48:08;;;;;;;3.22;2.92;;;22.70;61.80;;;;;;6102794;23;20156;-90
2022/07/05 07:50:36;;;;;;;3.42;3.13;;;22.70;61.10;;;;;;6067458;23;20196;-90
2022/07/05 07:53:06;;;;;;;2.85;2.65;;;22.70;61.30;;;;;;6106875;23;20230;-89
2022/07/05 07:55:31;;;;;;;2.97;2.78;;;22.70;60.60;;;;;;6125648;23;20150;-89
2022/07/05 07:58:02;;;;;;;3.10;2.90;;;22.70;60.90;;;;;;6126864;23;20530;-89
2022/07/05 08:00:29;;;;;;;2.83;2.63;;;22.70;60.90;;;;;;6127662;23;20163;-89
2022/07/05 08:04:21;;;;;;;3.35;3.05;;;22.80;60.30;;;;;;6129730;23;20171;-91
2022/07/05 08:06:36;;;;;;;3.20;3.00;;;22.70;60.50;;;;;;6116623;23;20238;-90
2022/07/05 08:09:05;;;;;;;3.22;3.00;;;22.70;60.70;;;;;;6129112;23;20156;-90
2022/07/05 08:11:32;;;;;;;3.05;2.78;;;22.70;60.50;;;;;;6139714;23;20166;-89
2022/07/05 08:13:58;;;;;;;3.50;3.20;;;22.70;60.20;;;;;;6156118;23;20638;-89
2022/07/05 08:16:24;;;;;;;3.00;2.80;;;22.70;60.10;;;;;;6156162;23;20258;-90
2022/07/05 08:21:37;;;;;;;3.35;3.05;;;22.80;59.50;;;;;;6156721;23;20159;-90
2022/07/05 08:24:07;;;;;;;3.00;2.80;;;22.80;59.80;;;;;;6155408;23;20175;-90
2022/07/05 08:26:34;;;;;;;2.95;2.75;;;22.70;59.70;;;;;;6145621;23;20159;-90
2022/07/05 08:29:01;;;;;;;3.10;2.90;;;22.80;59.50;;;;;;6161529;23;20150;-88
2022/07/05 08:31:34;;;;;;;3.00;2.80;;;22.80;59.60;;;;;;6141382;23;20158;-90
2022/07/05 08:34:00;;;;;;;3.20;2.90;;;22.80;59.60;;;;;;6190033;23;20178;-90
2022/07/05 08:36:26;;;;;;;2.80;2.60;;;22.70;59.60;;;;;;6165231;23;20492;-88
2022/07/05 08:38:52;;;;;;;3.20;3.00;;;22.80;59.40;;;;;;6165716;23;20196;-90
2022/07/05 08:41:20;;;;;;;2.95;2.75;;;22.80;59.40;;;;;;6166329;23;20150;-88
2022/07/05 08:43:47;;;;;;;2.63;2.42;;;22.70;59.30;;;;;;6223152;23;20203;-89
2022/07/05 08:46:14;;;;;;;2.70;2.50;;;22.80;59.00;;;;;;6249268;23;20141;-90
2022/07/05 08:48:43;;;;;;;2.70;2.50;;;22.80;59.00;;;;;;6224482;23;20153;-89
2022/07/05 08:51:12;;;;;;;2.38;2.20;;;22.90;58.90;;;;;;6275387;22;20238;-89
2022/07/05 08:53:40;;;;;;;2.53;2.33;;;22.80;58.60;;;;;;6227724;22;20264;-88
2022/07/05 08:56:08;;;;;;;2.88;2.42;;;22.80;58.50;;;;;;6226947;22;20624;-89
2022/07/05 08:58:34;;;;;;;2.78;2.58;;;22.90;58.50;;;;;;6225754;22;20137;-89
2022/07/05 09:01:01;;;;;;;2.60;2.40;;;22.80;58.30;;;;;;6226771;22;20180;-90
2022/07/05 09:03:31;;;;;;;2.70;2.50;;;22.80;58.40;;;;;;6226668;22;20141;-89
2022/07/05 09:06:01;;;;;;;2.38;2.20;;;22.80;58.70;;;;;;6226315;22;20194;-89
2022/07/05 09:08:38;;;;;;;2.88;2.67;;;22.70;58.40;;;;;;6254265;22;20148;-89
2022/07/05 09:11:06;;;;;;;2.80;2.60;;;22.70;58.50;;;;;;6265856;22;20163;-86
2022/07/05 09:13:44;;;;;;;2.70;2.42;;;22.70;58.30;;;;;;6263798;22;20205;-86
2022/07/05 09:16:13;;;;;;;2.70;2.50;;;22.70;58.60;;;;;;6240063;22;20157;-86
2022/07/05 09:18:56;;;;;;;2.70;2.50;;;22.70;58.20;;;;;;6263923;22;20149;-86
2022/07/05 09:21:25;;;;;;;2.60;2.40;;;22.80;58.20;;;;;;6180433;23;20153;-88
2022/07/05 09:23:56;;;;;;;2.97;2.78;;;22.80;58.00;;;;;;6109132;23;20156;-87
2022/07/05 09:26:44;;;;;;;2.67;2.47;;;22.80;57.90;;;;;;6085526;23;20157;-87
2022/07/05 09:29:17;;;;;;;2.90;2.70;;;22.80;57.70;;;;;;6109680;23;20160;-86
2022/07/05 09:31:49;;;;;;;3.30;2.55;;;22.80;57.90;;;;;;6109735;23;20161;-86
2022/07/05 09:34:21;;;;;;;3.03;2.78;;;22.80;57.90;;;;;;6086058;23;20184;-86
2022/07/05 09:36:56;;;;;;;2.72;2.53;;;22.80;57.90;;;;;;6085955;23;20160;-86
2022/07/05 09:39:37;;;;;;;2.63;2.42;;;22.80;57.80;;;;;;6085761;23;20207;-86
2022/07/05 09:42:23;;;;;;;4.32;2.10;;;22.80;57.50;;;;;;6085200;23;20149;-86
2022/07/05 09:44:57;;;;;;;3.35;2.40;;;22.80;57.30;;;;;;6047460;23;20165;-86
2022/07/05 09:47:27;;;;;;;2.70;2.30;;;22.80;57.10;;;;;;6034197;23;20157;-87
2022/07/05 09:49:57;;;;;;;2.78;2.58;;;22.80;57.30;;;;;;6033358;23;20221;-87
2022/07/05 09:52:28;;;;;;;2.20;2.00;;;22.80;57.00;;;;;;6031316;23;20212;-90
2022/07/05 09:55:04;;;;;;;2.40;2.20;;;22.80;56.80;;;;;;6090517;23;20230;-87
2022/07/05 09:57:33;;;;;;;2.65;2.45;;;22.80;56.80;;;;;;6125661;23;20214;-90
2022/07/05 10:00:01;;;;;;;2.72;2.10;;;22.80;56.70;;;;;;6126608;23;20160;-89
2022/07/05 10:02:48;;;;;;;12.43;2.20;;;22.80;56.60;;;;;;6130696;23;20152;-88
2022/07/05 10:05:16;;;;;;;2.17;2.00;;;22.80;56.50;;;;;;6133042;23;20247;-91
2022/07/05 10:07:45;;;;;;;2.63;2.42;;;22.80;56.70;;;;;;6108340;23;20176;-87
2022/07/05 10:10:14;;;;;;;2.60;2.40;;;22.80;56.80;;;;;;6185025;22;20150;-87
2022/07/05 10:12:41;;;;;;;2.40;2.20;;;22.80;56.50;;;;;;6203005;23;20181;-87
2022/07/05 10:15:16;;;;;;;2.60;2.40;;;22.80;56.50;;;;;;6202982;23;20153;-87
2022/07/05 10:18:09;;;;;;;2.65;2.45;;;22.80;56.70;;;;;;6204534;23;20208;-89
2022/07/05 10:20:43;;;;;;;2.22;2.10;;;22.80;56.60;;;;;;6254838;23;20161;-89
2022/07/05 10:23:10;;;;;;;2.42;2.22;;;22.80;56.60;;;;;;6206876;23;20157;-87
2022/07/05 10:25:36;;;;;;;3.30;2.42;;;22.80;56.30;;;;;;6205311;23;20226;-88
2022/07/05 10:28:07;;;;;;;3.20;2.20;;;22.80;56.10;;;;;;6204529;23;20146;-89
2022/07/05 10:30:33;;;;;;;2.58;2.38;;;22.80;56.30;;;;;;6229407;23;20176;-88
2022/07/05 10:33:06;;;;;;;2.53;2.30;;;22.80;56.60;;;;;;6229418;23;20295;-87
2022/07/05 10:35:33;;;;;;;2.50;2.30;;;22.70;56.30;;;;;;6169219;23;20150;-87
2022/07/05 10:38:05;;;;;;;2.50;2.30;;;22.80;56.10;;;;;;6144144;23;20170;-90
2022/07/05 10:40:33;;;;;;;2.10;2.00;;;22.80;56.10;;;;;;6169203;23;20158;-87
2022/07/05 10:43:03;;;;;;;2.40;2.20;;;22.80;56.10;;;;;;6145381;23;20202;-87
2022/07/05 10:45:38;;;;;;;2.47;2.28;;;22.80;55.90;;;;;;6119881;23;20160;-89
2022/07/05 10:48:37;;;;;;;2.20;2.00;;;22.80;56.10;;;;;;6144224;23;20629;-88
2022/07/05 10:51:17;;;;;;;2.50;2.30;;;22.70;55.70;;;;;;6174412;23;20193;-88
2022/07/05 10:53:49;;;;;;;2.42;2.22;;;22.80;55.90;;;;;;6173046;23;20256;-88
2022/07/05 10:56:19;;;;;;;2.28;1.95;;;22.80;55.70;;;;;;6199784;23;20241;-89
2022/07/05 10:58:50;;;;;;;2.45;2.25;;;22.80;55.60;;;;;;6199216;23;20142;-87
2022/07/05 11:01:38;;;;;;;2.45;2.22;;;22.80;55.80;;;;;;6173671;23;20635;-88
2022/07/05 11:04:20;;;;;;;2.03;1.83;;;22.80;55.70;;;;;;6175661;23;20154;-86
2022/07/05 11:06:49;;;;;;;2.42;2.22;;;22.80;55.60;;;;;;6199732;23;20153;-87
2022/07/05 11:09:22;;;;;;;2.00;1.90;;;22.80;55.60;;;;;;6174384;23;20176;-86
2022/07/05 11:12:06;;;;;;;2.38;2.17;;;22.90;55.30;;;;;;6112112;23;20167;-87
2022/07/05 11:14:33;;;;;;;2.40;2.20;;;22.90;55.40;;;;;;6194269;23;20190;-88
2022/07/05 11:17:22;;;;;;;2.38;2.17;;;22.80;55.30;;;;;;6170003;23;20221;-86
2022/07/05 11:20:01;;;;;;;2.05;1.85;;;22.80;55.30;;;;;;6195188;23;20150;-88
2022/07/05 11:22:39;;;;;;;2.00;1.90;;;22.80;55.00;;;;;;6167302;23;20237;-86
2022/07/05 11:25:25;;;;;;;1.92;1.75;;;22.80;55.00;;;;;;6109856;23;20156;-88
2022/07/05 11:28:05;;;;;;;2.10;2.00;;;22.80;55.00;;;;;;6084575;23;20156;-87
2022/07/05 11:30:42;;;;;;;2.08;1.90;;;22.80;55.10;;;;;;6053780;23;20157;-89
2022/07/05 11:33:35;;;;;;;1.80;1.70;;;22.70;55.00;;;;;;6032730;23;20229;-89
2022/07/05 11:36:12;;;;;;;1.85;1.75;;;22.70;54.90;;;;;;6030081;23;20159;-88
2022/07/05 11:39:15;;;;;;;1.73;1.63;;;22.70;54.40;;;;;;6054318;23;20165;-88
2022/07/05 11:41:43;;;;;;;1.63;1.52;;;22.80;54.50;;;;;;6079048;23;20224;-88
2022/07/05 11:44:12;;;;;;;2.13;1.70;;;22.80;54.40;;;;;;6059780;23;20180;-88
2022/07/05 11:46:42;;;;;;;1.60;1.50;;;22.70;54.30;;;;;;6083662;23;20159;-88
2022/07/05 11:49:07;;;;;;;1.73;1.63;;;22.70;54.10;;;;;;6090749;23;20154;-86
2022/07/05 11:51:36;;;;;;;1.63;1.52;;;22.60;54.80;;;;;;6151404;23;20164;-87
2022/07/05 11:54:05;;;;;;;1.73;1.63;;;22.60;54.20;;;;;;6175158;23;20190;-87
2022/07/05 11:56:36;;;;;;;1.90;1.70;;;22.60;53.90;;;;;;6199414;23;20220;-88
2022/07/05 11:59:17;;;;;;;1.38;1.27;;;22.60;53.90;;;;;;6199764;23;20154;-87
2022/07/05 12:01:44;;;;;;;1.65;1.55;;;22.60;54.00;;;;;;6174934;23;20150;-87
2022/07/05 12:04:29;;;;;;;2.25;2.08;;;22.60;54.20;;;;;;6176296;23;20189;-87
2022/07/05 12:06:58;;;;;;;2.03;1.90;;;22.60;54.40;;;;;;6199852;23;20158;-89
2022/07/05 12:15:08;;;;;;;2.13;2.00;;;22.60;54.40;;;;;;6196584;23;20154;-87
2022/07/05 12:17:41;;;;;;;1.83;1.65;;;22.70;54.80;;;;;;6196693;23;20146;-87
2022/07/05 12:20:13;;;;;;;2.38;1.85;;;22.70;55.30;;;;;;6225426;22;20190;-88
2022/07/05 12:22:42;;;;;;;1.92;1.83;;;22.60;55.70;;;;;;6140695;23;20163;-88
2022/07/05 12:25:15;;;;;;;1.60;1.50;;;22.50;55.90;;;;;;6115448;23;20280;-87
2022/07/05 12:27:48;;;;;;;2.00;1.80;;;22.50;56.60;;;;;;6116245;23;20153;-87
2022/07/05 12:30:16;;;;;;;1.65;1.55;;;22.40;56.70;;;;;;6053155;23;20221;-89
2022/07/05 12:32:55;;;;;;;1.80;1.70;;;22.40;57.10;;;;;;6053512;23;20684;-87
2022/07/05 12:35:42;;;;;;;1.80;1.70;;;22.30;57.60;;;;;;6077642;23;20149;-87
2022/07/05 12:38:18;;;;;;;1.60;1.50;;;22.20;57.80;;;;;;6055039;23;20217;-88
2022/07/05 12:40:47;;;;;;;1.70;1.60;;;22.10;58.20;;;;;;6078153;23;20160;-87
2022/07/05 12:43:14;;;;;;;3.88;1.70;;;22.10;58.30;;;;;;6054909;23;20180;-87
2022/07/05 12:45:43;;;;;;;1.70;1.60;;;22.10;58.50;;;;;;6055009;23;20156;-88
2022/07/05 12:48:12;;;;;;;1.60;1.50;;;22.10;58.60;;;;;;6054866;23;20167;-87
2022/07/05 12:51:03;;;;;;;1.30;1.20;;;22.10;58.80;;;;;;6053966;23;20208;-87
2022/07/05 12:58:55;;;;;;;1.50;1.40;;;22.00;58.90;;;;;;6115289;23;20171;-86
2022/07/05 13:01:31;;;;;;;1.50;1.40;;;22.00;58.70;;;;;;6113451;23;20152;-87
2022/07/05 13:04:03;;;;;;;1.30;1.20;;;22.00;58.50;;;;;;6065334;23;20148;-86
2022/07/05 13:06:55;;;;;;;1.33;1.23;;;22.00;58.30;;;;;;6052923;23;20156;-88
2022/07/05 15:46:00;;;;;;;1.08;1.00;;;21.90;54.00;;;;;;6318497;22;20202;-89
2022/07/05 15:49:30;;;;;;;1.00;0.90;;;22.00;53.90;;;;;;6227150;23;20260;-89
2022/07/05 15:51:57;;;;;;;1.15;0.90;;;21.90;54.00;;;;;;6225083;23;20171;-88
2022/07/05 15:54:32;;;;;;;0.90;0.90;;;21.90;53.90;;;;;;6201217;23;20193;-89
2022/07/05 15:57:28;;;;;;;0.93;0.93;;;21.80;53.90;;;;;;6200269;23;20489;-89
2022/07/05 16:00:48;;;;;;;0.70;0.70;;;21.90;54.00;;;;;;6141026;23;20160;-88
2022/07/05 18:05:19;;;;;;;1.13;0.63;;;21.70;54.10;;;;;;6298555;22;20215;-90